sensor_id;sensor_type;location;lat;lon;timestamp;P1;durP1;ratioP1;P2;durP2;ratioP2
31482;SDS011;18103;52.246;8.052;2022-12-22T00:01:38;7.20;;;5.33;;
31482;SDS011;18103;52.246;8.052;2022-12-22T00:04:22;17.10;;;7.20;;
31482;SDS011;18103;52.246;8.052;2022-12-22T00:07:06;6.77;;;5.10;;
31482;SDS011;18103;52.246;8.052;2022-12-22T00:09:50;12.07;;;5.77;;
31482;SDS011;18103;52.246;8.052;2022-12-22T00:12:35;10.73;;;5.93;;
31482;SDS011;18103;52.246;8.052;2022-12-22T00:15:20;8.83;;;6.17;;
31482;SDS011;18103;52.246;8.052;2022-12-22T00:18:04;9.87;;;6.67;;
31482;SDS011;18103;52.246;8.052;2022-12-22T00:20:48;9.07;;;6.43;;
31482;SDS011;18103;52.246;8.052;2022-12-22T00:23:32;11.63;;;6.77;;
31482;SDS011;18103;52.246;8.052;2022-12-22T00:26:17;12.80;;;7.43;;
31482;SDS011;18103;52.246;8.052;2022-12-22T00:29:02;11.73;;;7.07;;
31482;SDS011;18103;52.246;8.052;2022-12-22T00:31:46;10.93;;;7.40;;
31482;SDS011;18103;52.246;8.052;2022-12-22T00:34:33;10.37;;;7.20;;
31482;SDS011;18103;52.246;8.052;2022-12-22T00:37:22;15.13;;;7.47;;
31482;SDS011;18103;52.246;8.052;2022-12-22T00:40:19;10.57;;;7.50;;
31482;SDS011;18103;52.246;8.052;2022-12-22T00:43:04;14.13;;;7.90;;
31482;SDS011;18103;52.246;8.052;2022-12-22T00:45:49;11.47;;;7.47;;
31482;SDS011;18103;52.246;8.052;2022-12-22T00:48:34;18.10;;;8.93;;
31482;SDS011;18103;52.246;8.052;2022-12-22T00:51:18;13.03;;;8.27;;
31482;SDS011;18103;52.246;8.052;2022-12-22T00:54:02;19.70;;;9.37;;
31482;SDS011;18103;52.246;8.052;2022-12-22T00:56:51;16.20;;;8.77;;
31482;SDS011;18103;52.246;8.052;2022-12-22T00:59:35;16.27;;;10.00;;
31482;SDS011;18103;52.246;8.052;2022-12-22T01:02:19;13.87;;;9.23;;
31482;SDS011;18103;52.246;8.052;2022-12-22T01:05:03;15.80;;;8.70;;
31482;SDS011;18103;52.246;8.052;2022-12-22T01:07:47;17.40;;;10.23;;
31482;SDS011;18103;52.246;8.052;2022-12-22T01:10:30;16.20;;;10.13;;
31482;SDS011;18103;52.246;8.052;2022-12-22T01:13:14;18.20;;;9.30;;
31482;SDS011;18103;52.246;8.052;2022-12-22T01:15:59;16.40;;;9.73;;
31482;SDS011;18103;52.246;8.052;2022-12-22T01:18:43;15.77;;;9.23;;
31482;SDS011;18103;52.246;8.052;2022-12-22T01:21:26;19.53;;;10.63;;
31482;SDS011;18103;52.246;8.052;2022-12-22T01:24:15;18.57;;;9.97;;
31482;SDS011;18103;52.246;8.052;2022-12-22T01:27:01;15.73;;;10.07;;
31482;SDS011;18103;52.246;8.052;2022-12-22T01:29:46;17.90;;;10.47;;
31482;SDS011;18103;52.246;8.052;2022-12-22T01:32:30;20.90;;;10.17;;
31482;SDS011;18103;52.246;8.052;2022-12-22T01:35:22;19.07;;;10.83;;
31482;SDS011;18103;52.246;8.052;2022-12-22T01:38:08;15.53;;;9.70;;
31482;SDS011;18103;52.246;8.052;2022-12-22T01:40:53;18.07;;;10.23;;
31482;SDS011;18103;52.246;8.052;2022-12-22T01:43:38;16.27;;;8.77;;
31482;SDS011;18103;52.246;8.052;2022-12-22T01:49:09;18.17;;;9.40;;
31482;SDS011;18103;52.246;8.052;2022-12-22T01:51:56;19.57;;;9.80;;
31482;SDS011;18103;52.246;8.052;2022-12-22T01:54:40;21.30;;;10.20;;
31482;SDS011;18103;52.246;8.052;2022-12-22T01:57:26;15.27;;;10.20;;
31482;SDS011;18103;52.246;8.052;2022-12-22T02:00:11;18.13;;;10.23;;
31482;SDS011;18103;52.246;8.052;2022-12-22T02:02:55;18.13;;;10.90;;
31482;SDS011;18103;52.246;8.052;2022-12-22T02:05:42;19.83;;;9.93;;
31482;SDS011;18103;52.246;8.052;2022-12-22T02:08:37;17.13;;;9.50;;
31482;SDS011;18103;52.246;8.052;2022-12-22T02:11:40;15.80;;;9.57;;
31482;SDS011;18103;52.246;8.052;2022-12-22T02:20:59;18.10;;;9.13;;
31482;SDS011;18103;52.246;8.052;2022-12-22T02:27:06;15.70;;;9.27;;
31482;SDS011;18103;52.246;8.052;2022-12-22T02:29:56;16.77;;;10.67;;
31482;SDS011;18103;52.246;8.052;2022-12-22T02:32:45;18.37;;;10.53;;
31482;SDS011;18103;52.246;8.052;2022-12-22T02:35:41;22.30;;;12.00;;
31482;SDS011;18103;52.246;8.052;2022-12-22T02:38:34;20.27;;;10.50;;
31482;SDS011;18103;52.246;8.052;2022-12-22T02:41:42;19.93;;;10.63;;
31482;SDS011;18103;52.246;8.052;2022-12-22T02:44:51;23.33;;;11.33;;
31482;SDS011;18103;52.246;8.052;2022-12-22T02:47:49;21.93;;;10.93;;
31482;SDS011;18103;52.246;8.052;2022-12-22T02:50:40;22.80;;;12.30;;
31482;SDS011;18103;52.246;8.052;2022-12-22T02:53:29;25.23;;;11.20;;
31482;SDS011;18103;52.246;8.052;2022-12-22T02:56:14;18.87;;;10.47;;
31482;SDS011;18103;52.246;8.052;2022-12-22T02:58:58;23.33;;;10.93;;
31482;SDS011;18103;52.246;8.052;2022-12-22T03:01:43;21.27;;;11.03;;
31482;SDS011;18103;52.246;8.052;2022-12-22T03:04:28;23.17;;;11.67;;
31482;SDS011;18103;52.246;8.052;2022-12-22T03:07:12;22.83;;;12.27;;
31482;SDS011;18103;52.246;8.052;2022-12-22T03:09:56;26.50;;;11.83;;
31482;SDS011;18103;52.246;8.052;2022-12-22T03:12:40;26.30;;;11.97;;
31482;SDS011;18103;52.246;8.052;2022-12-22T03:15:24;23.13;;;11.47;;
31482;SDS011;18103;52.246;8.052;2022-12-22T03:18:09;24.63;;;11.93;;
31482;SDS011;18103;52.246;8.052;2022-12-22T03:20:54;24.53;;;12.00;;
31482;SDS011;18103;52.246;8.052;2022-12-22T03:23:39;22.10;;;11.23;;
31482;SDS011;18103;52.246;8.052;2022-12-22T03:26:23;26.10;;;11.77;;
31482;SDS011;18103;52.246;8.052;2022-12-22T03:28:50;23.90;;;12.00;;
31482;SDS011;18103;52.246;8.052;2022-12-22T03:31:16;22.13;;;11.37;;
31482;SDS011;18103;52.246;8.052;2022-12-22T03:33:41;24.00;;;12.07;;
31482;SDS011;18103;52.246;8.052;2022-12-22T03:36:07;18.67;;;10.57;;
31482;SDS011;18103;52.246;8.052;2022-12-22T03:38:33;18.77;;;10.93;;
31482;SDS011;18103;52.246;8.052;2022-12-22T03:40:58;19.43;;;10.63;;
31482;SDS011;18103;52.246;8.052;2022-12-22T03:43:25;18.10;;;10.00;;
31482;SDS011;18103;52.246;8.052;2022-12-22T03:46:10;19.17;;;10.07;;
31482;SDS011;18103;52.246;8.052;2022-12-22T03:49:13;18.07;;;9.90;;
31482;SDS011;18103;52.246;8.052;2022-12-22T03:51:42;17.33;;;9.80;;
31482;SDS011;18103;52.246;8.052;2022-12-22T03:54:11;17.40;;;9.67;;
31482;SDS011;18103;52.246;8.052;2022-12-22T03:56:37;16.60;;;8.57;;
31482;SDS011;18103;52.246;8.052;2022-12-22T03:59:04;16.87;;;9.00;;
31482;SDS011;18103;52.246;8.052;2022-12-22T04:01:30;16.67;;;9.90;;
31482;SDS011;18103;52.246;8.052;2022-12-22T04:03:57;17.27;;;9.20;;
31482;SDS011;18103;52.246;8.052;2022-12-22T04:06:22;17.50;;;8.70;;
31482;SDS011;18103;52.246;8.052;2022-12-22T04:08:47;17.63;;;8.23;;
31482;SDS011;18103;52.246;8.052;2022-12-22T04:11:14;16.57;;;8.87;;
31482;SDS011;18103;52.246;8.052;2022-12-22T04:13:59;14.03;;;8.03;;
31482;SDS011;18103;52.246;8.052;2022-12-22T04:16:25;15.23;;;7.47;;
31482;SDS011;18103;52.246;8.052;2022-12-22T04:18:50;14.53;;;7.80;;
31482;SDS011;18103;52.246;8.052;2022-12-22T04:21:16;12.70;;;7.13;;
31482;SDS011;18103;52.246;8.052;2022-12-22T04:23:41;13.50;;;7.87;;
31482;SDS011;18103;52.246;8.052;2022-12-22T04:26:07;12.10;;;6.87;;
31482;SDS011;18103;52.246;8.052;2022-12-22T04:28:33;11.40;;;6.77;;
31482;SDS011;18103;52.246;8.052;2022-12-22T04:30:58;10.57;;;6.37;;
31482;SDS011;18103;52.246;8.052;2022-12-22T04:33:24;10.67;;;6.93;;
31482;SDS011;18103;52.246;8.052;2022-12-22T04:35:49;13.40;;;7.43;;
31482;SDS011;18103;52.246;8.052;2022-12-22T04:38:14;13.87;;;7.47;;
31482;SDS011;18103;52.246;8.052;2022-12-22T04:40:40;15.23;;;8.57;;
31482;SDS011;18103;52.246;8.052;2022-12-22T04:43:05;14.13;;;9.00;;
31482;SDS011;18103;52.246;8.052;2022-12-22T04:45:31;16.77;;;8.57;;
31482;SDS011;18103;52.246;8.052;2022-12-22T04:47:56;18.53;;;9.27;;
31482;SDS011;18103;52.246;8.052;2022-12-22T04:50:25;18.53;;;9.13;;
31482;SDS011;18103;52.246;8.052;2022-12-22T04:52:50;14.33;;;8.07;;
31482;SDS011;18103;52.246;8.052;2022-12-22T04:55:15;17.23;;;9.10;;
31482;SDS011;18103;52.246;8.052;2022-12-22T04:57:41;17.33;;;9.17;;
31482;SDS011;18103;52.246;8.052;2022-12-22T05:00:07;17.23;;;8.80;;
31482;SDS011;18103;52.246;8.052;2022-12-22T05:02:34;18.23;;;10.33;;
31482;SDS011;18103;52.246;8.052;2022-12-22T05:04:59;18.63;;;9.93;;
31482;SDS011;18103;52.246;8.052;2022-12-22T05:07:25;17.53;;;9.20;;
31482;SDS011;18103;52.246;8.052;2022-12-22T05:09:50;15.10;;;8.87;;
31482;SDS011;18103;52.246;8.052;2022-12-22T05:12:15;14.93;;;8.13;;
31482;SDS011;18103;52.246;8.052;2022-12-22T05:14:59;20.13;;;8.80;;
31482;SDS011;18103;52.246;8.052;2022-12-22T05:17:24;18.70;;;8.97;;
31482;SDS011;18103;52.246;8.052;2022-12-22T05:19:50;14.60;;;8.20;;
31482;SDS011;18103;52.246;8.052;2022-12-22T05:22:15;15.63;;;8.53;;
31482;SDS011;18103;52.246;8.052;2022-12-22T05:24:41;17.40;;;9.90;;
31482;SDS011;18103;52.246;8.052;2022-12-22T05:27:06;15.30;;;8.23;;
31482;SDS011;18103;52.246;8.052;2022-12-22T05:29:31;17.40;;;9.07;;
31482;SDS011;18103;52.246;8.052;2022-12-22T05:31:57;13.27;;;8.10;;
31482;SDS011;18103;52.246;8.052;2022-12-22T05:34:22;13.33;;;8.17;;
31482;SDS011;18103;52.246;8.052;2022-12-22T05:36:48;15.63;;;8.67;;
31482;SDS011;18103;52.246;8.052;2022-12-22T05:39:16;17.13;;;9.43;;
31482;SDS011;18103;52.246;8.052;2022-12-22T05:41:42;14.50;;;7.77;;
31482;SDS011;18103;52.246;8.052;2022-12-22T05:44:07;13.00;;;7.67;;
31482;SDS011;18103;52.246;8.052;2022-12-22T05:46:32;12.17;;;7.77;;
31482;SDS011;18103;52.246;8.052;2022-12-22T05:48:58;12.50;;;8.10;;
31482;SDS011;18103;52.246;8.052;2022-12-22T05:51:23;14.10;;;8.23;;
31482;SDS011;18103;52.246;8.052;2022-12-22T05:53:48;13.43;;;6.87;;
31482;SDS011;18103;52.246;8.052;2022-12-22T05:56:14;11.87;;;7.40;;
31482;SDS011;18103;52.246;8.052;2022-12-22T05:58:39;13.23;;;6.80;;
31482;SDS011;18103;52.246;8.052;2022-12-22T06:01:05;13.13;;;7.53;;
31482;SDS011;18103;52.246;8.052;2022-12-22T06:03:30;10.20;;;6.47;;
31482;SDS011;18103;52.246;8.052;2022-12-22T06:05:56;14.67;;;6.67;;
31482;SDS011;18103;52.246;8.052;2022-12-22T06:08:23;13.57;;;6.97;;
31482;SDS011;18103;52.246;8.052;2022-12-22T06:10:48;11.17;;;6.60;;
31482;SDS011;18103;52.246;8.052;2022-12-22T06:13:14;9.53;;;5.30;;
31482;SDS011;18103;52.246;8.052;2022-12-22T06:15:42;9.60;;;6.07;;
31482;SDS011;18103;52.246;8.052;2022-12-22T06:18:07;18.23;;;5.27;;
31482;SDS011;18103;52.246;8.052;2022-12-22T06:20:36;10.43;;;5.47;;
31482;SDS011;18103;52.246;8.052;2022-12-22T06:23:01;10.70;;;5.20;;
31482;SDS011;18103;52.246;8.052;2022-12-22T06:25:27;8.57;;;4.90;;
31482;SDS011;18103;52.246;8.052;2022-12-22T06:27:52;7.40;;;4.73;;
31482;SDS011;18103;52.246;8.052;2022-12-22T06:30:18;11.07;;;4.83;;
31482;SDS011;18103;52.246;8.052;2022-12-22T06:32:43;10.83;;;5.40;;
31482;SDS011;18103;52.246;8.052;2022-12-22T06:35:09;10.83;;;5.00;;
31482;SDS011;18103;52.246;8.052;2022-12-22T06:37:34;8.17;;;4.47;;
31482;SDS011;18103;52.246;8.052;2022-12-22T06:40:00;11.50;;;5.87;;
31482;SDS011;18103;52.246;8.052;2022-12-22T06:42:26;11.37;;;5.37;;
31482;SDS011;18103;52.246;8.052;2022-12-22T06:45:10;10.13;;;4.27;;
31482;SDS011;18103;52.246;8.052;2022-12-22T06:47:35;13.90;;;5.17;;
31482;SDS011;18103;52.246;8.052;2022-12-22T06:50:01;10.00;;;4.40;;
31482;SDS011;18103;52.246;8.052;2022-12-22T06:52:26;8.13;;;4.97;;
31482;SDS011;18103;52.246;8.052;2022-12-22T06:54:51;9.70;;;4.93;;
31482;SDS011;18103;52.246;8.052;2022-12-22T06:57:17;9.50;;;4.73;;
31482;SDS011;18103;52.246;8.052;2022-12-22T06:59:42;10.20;;;5.37;;
31482;SDS011;18103;52.246;8.052;2022-12-22T07:02:11;11.03;;;4.90;;
31482;SDS011;18103;52.246;8.052;2022-12-22T07:04:36;11.50;;;4.73;;
31482;SDS011;18103;52.246;8.052;2022-12-22T07:07:02;9.10;;;4.83;;
31482;SDS011;18103;52.246;8.052;2022-12-22T07:09:27;10.57;;;5.30;;
31482;SDS011;18103;52.246;8.052;2022-12-22T07:11:53;10.27;;;4.70;;
31482;SDS011;18103;52.246;8.052;2022-12-22T07:14:18;10.80;;;4.90;;
31482;SDS011;18103;52.246;8.052;2022-12-22T07:16:44;9.07;;;4.80;;
31482;SDS011;18103;52.246;8.052;2022-12-22T07:19:11;9.30;;;5.47;;
31482;SDS011;18103;52.246;8.052;2022-12-22T07:21:36;11.40;;;5.57;;
31482;SDS011;18103;52.246;8.052;2022-12-22T07:24:02;11.77;;;5.33;;
31482;SDS011;18103;52.246;8.052;2022-12-22T07:26:27;10.23;;;5.37;;
31482;SDS011;18103;52.246;8.052;2022-12-22T07:28:53;9.50;;;5.20;;
31482;SDS011;18103;52.246;8.052;2022-12-22T07:31:18;14.33;;;6.27;;
31482;SDS011;18103;52.246;8.052;2022-12-22T07:33:43;11.43;;;6.20;;
31482;SDS011;18103;52.246;8.052;2022-12-22T07:36:10;10.77;;;5.67;;
31482;SDS011;18103;52.246;8.052;2022-12-22T07:38:38;12.07;;;5.93;;
31482;SDS011;18103;52.246;8.052;2022-12-22T07:41:07;11.90;;;6.23;;
31482;SDS011;18103;52.246;8.052;2022-12-22T07:43:52;13.47;;;5.77;;
31482;SDS011;18103;52.246;8.052;2022-12-22T07:46:18;15.43;;;6.40;;
31482;SDS011;18103;52.246;8.052;2022-12-22T07:48:44;13.33;;;5.47;;
31482;SDS011;18103;52.246;8.052;2022-12-22T07:51:31;11.97;;;6.10;;
31482;SDS011;18103;52.246;8.052;2022-12-22T07:53:59;18.90;;;7.40;;
31482;SDS011;18103;52.246;8.052;2022-12-22T07:56:25;19.40;;;7.17;;
31482;SDS011;18103;52.246;8.052;2022-12-22T07:58:51;11.80;;;6.77;;
31482;SDS011;18103;52.246;8.052;2022-12-22T08:01:16;13.50;;;6.97;;
31482;SDS011;18103;52.246;8.052;2022-12-22T08:03:41;14.83;;;6.73;;
31482;SDS011;18103;52.246;8.052;2022-12-22T08:06:07;23.30;;;6.57;;
31482;SDS011;18103;52.246;8.052;2022-12-22T08:08:33;14.03;;;6.07;;
31482;SDS011;18103;52.246;8.052;2022-12-22T08:11:02;14.67;;;6.07;;
31482;SDS011;18103;52.246;8.052;2022-12-22T08:13:28;15.83;;;6.27;;
31482;SDS011;18103;52.246;8.052;2022-12-22T08:15:54;11.17;;;5.43;;
31482;SDS011;18103;52.246;8.052;2022-12-22T08:18:19;14.03;;;6.63;;
31482;SDS011;18103;52.246;8.052;2022-12-22T08:20:49;13.03;;;5.33;;
31482;SDS011;18103;52.246;8.052;2022-12-22T08:23:15;14.77;;;5.93;;
31482;SDS011;18103;52.246;8.052;2022-12-22T08:25:41;13.33;;;5.30;;
31482;SDS011;18103;52.246;8.052;2022-12-22T08:28:08;16.90;;;6.07;;
31482;SDS011;18103;52.246;8.052;2022-12-22T08:30:33;12.90;;;6.27;;
31482;SDS011;18103;52.246;8.052;2022-12-22T08:32:59;14.87;;;6.47;;
31482;SDS011;18103;52.246;8.052;2022-12-22T08:35:24;16.73;;;6.10;;
31482;SDS011;18103;52.246;8.052;2022-12-22T08:37:50;17.63;;;5.40;;
31482;SDS011;18103;52.246;8.052;2022-12-22T08:40:20;15.60;;;6.23;;
31482;SDS011;18103;52.246;8.052;2022-12-22T08:42:47;11.87;;;5.63;;
31482;SDS011;18103;52.246;8.052;2022-12-22T08:45:16;19.37;;;7.13;;
31482;SDS011;18103;52.246;8.052;2022-12-22T08:47:42;12.30;;;5.93;;
31482;SDS011;18103;52.246;8.052;2022-12-22T08:50:07;17.20;;;6.10;;
31482;SDS011;18103;52.246;8.052;2022-12-22T08:52:33;22.93;;;6.33;;
31482;SDS011;18103;52.246;8.052;2022-12-22T08:54:58;17.43;;;7.03;;
31482;SDS011;18103;52.246;8.052;2022-12-22T08:57:24;18.23;;;6.70;;
31482;SDS011;18103;52.246;8.052;2022-12-22T08:59:49;17.03;;;6.87;;
31482;SDS011;18103;52.246;8.052;2022-12-22T09:02:14;17.60;;;7.37;;
31482;SDS011;18103;52.246;8.052;2022-12-22T09:04:42;13.83;;;6.03;;
31482;SDS011;18103;52.246;8.052;2022-12-22T09:07:08;15.87;;;7.07;;
31482;SDS011;18103;52.246;8.052;2022-12-22T09:09:35;20.23;;;7.47;;
31482;SDS011;18103;52.246;8.052;2022-12-22T09:12:00;15.63;;;6.43;;
31482;SDS011;18103;52.246;8.052;2022-12-22T09:14:27;17.93;;;6.60;;
31482;SDS011;18103;52.246;8.052;2022-12-22T09:16:53;18.57;;;6.37;;
31482;SDS011;18103;52.246;8.052;2022-12-22T09:19:20;13.80;;;6.23;;
31482;SDS011;18103;52.246;8.052;2022-12-22T09:21:46;15.73;;;6.83;;
31482;SDS011;18103;52.246;8.052;2022-12-22T09:24:12;21.90;;;6.27;;
31482;SDS011;18103;52.246;8.052;2022-12-22T09:26:37;15.17;;;5.33;;
31482;SDS011;18103;52.246;8.052;2022-12-22T09:29:03;18.37;;;6.17;;
31482;SDS011;18103;52.246;8.052;2022-12-22T09:31:28;20.03;;;6.13;;
31482;SDS011;18103;52.246;8.052;2022-12-22T09:33:54;15.97;;;6.00;;
31482;SDS011;18103;52.246;8.052;2022-12-22T09:36:20;16.77;;;5.40;;
31482;SDS011;18103;52.246;8.052;2022-12-22T09:38:48;14.63;;;5.47;;
31482;SDS011;18103;52.246;8.052;2022-12-22T09:41:14;14.23;;;5.87;;
31482;SDS011;18103;52.246;8.052;2022-12-22T09:43:41;15.60;;;5.47;;
31482;SDS011;18103;52.246;8.052;2022-12-22T09:46:25;15.70;;;6.07;;
31482;SDS011;18103;52.246;8.052;2022-12-22T09:48:55;13.23;;;5.83;;
31482;SDS011;18103;52.246;8.052;2022-12-22T09:51:21;15.57;;;5.50;;
31482;SDS011;18103;52.246;8.052;2022-12-22T09:53:50;16.03;;;6.23;;
31482;SDS011;18103;52.246;8.052;2022-12-22T09:56:19;18.67;;;7.20;;
31482;SDS011;18103;52.246;8.052;2022-12-22T09:58:47;12.47;;;6.37;;
31482;SDS011;18103;52.246;8.052;2022-12-22T10:03:45;12.03;;;5.80;;
31482;SDS011;18103;52.246;8.052;2022-12-22T10:06:31;16.03;;;6.70;;
31482;SDS011;18103;52.246;8.052;2022-12-22T10:09:01;13.63;;;6.50;;
31482;SDS011;18103;52.246;8.052;2022-12-22T10:11:35;12.83;;;5.70;;
31482;SDS011;18103;52.246;8.052;2022-12-22T10:14:00;13.70;;;6.83;;
31482;SDS011;18103;52.246;8.052;2022-12-22T10:16:26;18.13;;;6.97;;
31482;SDS011;18103;52.246;8.052;2022-12-22T10:19:00;20.80;;;7.87;;
31482;SDS011;18103;52.246;8.052;2022-12-22T10:21:34;20.77;;;8.40;;
31482;SDS011;18103;52.246;8.052;2022-12-22T10:24:12;19.80;;;7.73;;
31482;SDS011;18103;52.246;8.052;2022-12-22T10:26:40;21.83;;;7.60;;
31482;SDS011;18103;52.246;8.052;2022-12-22T10:29:11;19.90;;;8.33;;
31482;SDS011;18103;52.246;8.052;2022-12-22T10:34:25;25.47;;;9.60;;
31482;SDS011;18103;52.246;8.052;2022-12-22T10:36:52;16.70;;;8.03;;
31482;SDS011;18103;52.246;8.052;2022-12-22T10:42:01;15.17;;;7.53;;
31482;SDS011;18103;52.246;8.052;2022-12-22T10:44:32;18.63;;;8.77;;
31482;SDS011;18103;52.246;8.052;2022-12-22T10:47:10;19.53;;;8.67;;
31482;SDS011;18103;52.246;8.052;2022-12-22T10:49:39;17.43;;;8.60;;
31482;SDS011;18103;52.246;8.052;2022-12-22T10:52:16;17.40;;;7.97;;
31482;SDS011;18103;52.246;8.052;2022-12-22T10:54:42;20.73;;;8.67;;
31482;SDS011;18103;52.246;8.052;2022-12-22T11:02:22;21.27;;;9.87;;
31482;SDS011;18103;52.246;8.052;2022-12-22T11:04:48;22.97;;;9.97;;
31482;SDS011;18103;52.246;8.052;2022-12-22T11:07:15;19.23;;;9.20;;
31482;SDS011;18103;52.246;8.052;2022-12-22T11:09:41;23.83;;;9.37;;
31482;SDS011;18103;52.246;8.052;2022-12-22T11:23:29;20.20;;;8.90;;
31482;SDS011;18103;52.246;8.052;2022-12-22T11:26:22;23.27;;;10.00;;
31482;SDS011;18103;52.246;8.052;2022-12-22T11:31:52;23.63;;;9.63;;
31482;SDS011;18103;52.246;8.052;2022-12-22T11:34:32;20.47;;;8.83;;
31482;SDS011;18103;52.246;8.052;2022-12-22T11:45:38;22.70;;;8.90;;
31482;SDS011;18103;52.246;8.052;2022-12-22T11:50:55;15.37;;;6.57;;
31482;SDS011;18103;52.246;8.052;2022-12-22T12:02:29;17.97;;;7.33;;
31482;SDS011;18103;52.246;8.052;2022-12-22T12:08:07;11.90;;;5.07;;
31482;SDS011;18103;52.246;8.052;2022-12-22T12:10:37;20.97;;;6.53;;
31482;SDS011;18103;52.246;8.052;2022-12-22T12:15:39;13.13;;;5.80;;
31482;SDS011;18103;52.246;8.052;2022-12-22T12:18:21;11.60;;;5.27;;
31482;SDS011;18103;52.246;8.052;2022-12-22T12:29:27;18.30;;;5.67;;
31482;SDS011;18103;52.246;8.052;2022-12-22T12:32:01;9.63;;;3.57;;
31482;SDS011;18103;52.246;8.052;2022-12-22T12:34:48;11.50;;;4.80;;
31482;SDS011;18103;52.246;8.052;2022-12-22T12:37:24;13.23;;;4.30;;
31482;SDS011;18103;52.246;8.052;2022-12-22T12:42:56;13.23;;;4.80;;
31482;SDS011;18103;52.246;8.052;2022-12-22T12:45:34;12.13;;;4.93;;
31482;SDS011;18103;52.246;8.052;2022-12-22T12:48:34;14.07;;;4.67;;
31482;SDS011;18103;52.246;8.052;2022-12-22T12:51:01;10.17;;;4.23;;
31482;SDS011;18103;52.246;8.052;2022-12-22T12:53:27;10.67;;;5.03;;
31482;SDS011;18103;52.246;8.052;2022-12-22T12:55:57;16.73;;;4.97;;
31482;SDS011;18103;52.246;8.052;2022-12-22T13:00:59;12.10;;;4.83;;
31482;SDS011;18103;52.246;8.052;2022-12-22T13:05:55;11.43;;;4.40;;
31482;SDS011;18103;52.246;8.052;2022-12-22T13:08:23;10.90;;;4.13;;
31482;SDS011;18103;52.246;8.052;2022-12-22T13:20:52;13.27;;;5.07;;
31482;SDS011;18103;52.246;8.052;2022-12-22T13:23:21;11.03;;;5.27;;
31482;SDS011;18103;52.246;8.052;2022-12-22T13:25:47;15.77;;;5.17;;
31482;SDS011;18103;52.246;8.052;2022-12-22T13:28:18;11.13;;;5.27;;
31482;SDS011;18103;52.246;8.052;2022-12-22T13:30:49;13.40;;;6.03;;
31482;SDS011;18103;52.246;8.052;2022-12-22T13:33:23;13.93;;;5.83;;
31482;SDS011;18103;52.246;8.052;2022-12-22T13:35:50;12.07;;;5.07;;
31482;SDS011;18103;52.246;8.052;2022-12-22T13:38:33;12.80;;;6.07;;
31482;SDS011;18103;52.246;8.052;2022-12-22T13:41:12;10.27;;;4.70;;
31482;SDS011;18103;52.246;8.052;2022-12-22T13:43:40;15.90;;;5.83;;
31482;SDS011;18103;52.246;8.052;2022-12-22T13:46:08;14.80;;;5.83;;
31482;SDS011;18103;52.246;8.052;2022-12-22T13:51:05;17.10;;;6.17;;
31482;SDS011;18103;52.246;8.052;2022-12-22T13:53:39;17.67;;;5.73;;
31482;SDS011;18103;52.246;8.052;2022-12-22T13:56:07;19.40;;;5.47;;
31482;SDS011;18103;52.246;8.052;2022-12-22T13:58:39;13.03;;;5.37;;
31482;SDS011;18103;52.246;8.052;2022-12-22T14:03:37;12.83;;;5.53;;
31482;SDS011;18103;52.246;8.052;2022-12-22T14:06:29;14.33;;;6.17;;
31482;SDS011;18103;52.246;8.052;2022-12-22T14:11:35;19.57;;;6.13;;
31482;SDS011;18103;52.246;8.052;2022-12-22T14:14:00;15.77;;;5.80;;
31482;SDS011;18103;52.246;8.052;2022-12-22T14:16:30;14.23;;;5.83;;
31482;SDS011;18103;52.246;8.052;2022-12-22T14:18:55;10.77;;;5.63;;
31482;SDS011;18103;52.246;8.052;2022-12-22T14:21:21;18.07;;;5.90;;
31482;SDS011;18103;52.246;8.052;2022-12-22T14:23:47;17.40;;;6.10;;
31482;SDS011;18103;52.246;8.052;2022-12-22T14:26:15;16.93;;;6.03;;
31482;SDS011;18103;52.246;8.052;2022-12-22T14:28:45;13.07;;;6.20;;
31482;SDS011;18103;52.246;8.052;2022-12-22T14:31:17;13.37;;;5.53;;
31482;SDS011;18103;52.246;8.052;2022-12-22T14:34:22;10.80;;;5.10;;
31482;SDS011;18103;52.246;8.052;2022-12-22T14:36:49;14.30;;;5.23;;
31482;SDS011;18103;52.246;8.052;2022-12-22T14:39:21;16.00;;;5.77;;
31482;SDS011;18103;52.246;8.052;2022-12-22T14:41:53;10.03;;;5.07;;
31482;SDS011;18103;52.246;8.052;2022-12-22T14:49:43;14.07;;;5.43;;
31482;SDS011;18103;52.246;8.052;2022-12-22T14:52:42;13.60;;;5.33;;
31482;SDS011;18103;52.246;8.052;2022-12-22T14:55:21;13.70;;;5.83;;
31482;SDS011;18103;52.246;8.052;2022-12-22T14:57:51;12.40;;;5.77;;
31482;SDS011;18103;52.246;8.052;2022-12-22T15:02:54;16.03;;;6.13;;
31482;SDS011;18103;52.246;8.052;2022-12-22T15:07:50;11.70;;;5.30;;
31482;SDS011;18103;52.246;8.052;2022-12-22T15:10:17;11.87;;;5.30;;
31482;SDS011;18103;52.246;8.052;2022-12-22T15:12:43;12.47;;;5.40;;
31482;SDS011;18103;52.246;8.052;2022-12-22T15:15:14;15.80;;;5.90;;
31482;SDS011;18103;52.246;8.052;2022-12-22T15:17:42;13.17;;;5.87;;
31482;SDS011;18103;52.246;8.052;2022-12-22T15:20:31;13.93;;;5.57;;
31482;SDS011;18103;52.246;8.052;2022-12-22T15:22:56;11.63;;;5.23;;
31482;SDS011;18103;52.246;8.052;2022-12-22T15:25:23;9.63;;;4.93;;
31482;SDS011;18103;52.246;8.052;2022-12-22T15:27:50;11.47;;;5.60;;
31482;SDS011;18103;52.246;8.052;2022-12-22T15:30:17;13.80;;;5.57;;
31482;SDS011;18103;52.246;8.052;2022-12-22T15:32:45;13.73;;;5.07;;
31482;SDS011;18103;52.246;8.052;2022-12-22T15:35:17;9.77;;;5.03;;
31482;SDS011;18103;52.246;8.052;2022-12-22T15:38:05;13.77;;;5.77;;
31482;SDS011;18103;52.246;8.052;2022-12-22T15:40:38;14.37;;;5.17;;
31482;SDS011;18103;52.246;8.052;2022-12-22T15:43:03;13.00;;;4.87;;
31482;SDS011;18103;52.246;8.052;2022-12-22T15:45:29;18.63;;;5.00;;
31482;SDS011;18103;52.246;8.052;2022-12-22T15:47:55;16.33;;;5.43;;
31482;SDS011;18103;52.246;8.052;2022-12-22T15:50:26;14.70;;;5.17;;
31482;SDS011;18103;52.246;8.052;2022-12-22T15:52:56;12.07;;;5.67;;
31482;SDS011;18103;52.246;8.052;2022-12-22T15:55:23;17.57;;;7.03;;
31482;SDS011;18103;52.246;8.052;2022-12-22T15:57:49;11.63;;;5.53;;
31482;SDS011;18103;52.246;8.052;2022-12-22T16:00:17;13.10;;;5.03;;
31482;SDS011;18103;52.246;8.052;2022-12-22T16:02:44;14.00;;;5.80;;
31482;SDS011;18103;52.246;8.052;2022-12-22T16:05:13;18.67;;;5.27;;
31482;SDS011;18103;52.246;8.052;2022-12-22T16:07:39;16.40;;;6.03;;
31482;SDS011;18103;52.246;8.052;2022-12-22T16:10:07;17.67;;;5.93;;
31482;SDS011;18103;52.246;8.052;2022-12-22T16:12:44;15.90;;;6.53;;
31482;SDS011;18103;52.246;8.052;2022-12-22T16:15:18;19.20;;;5.90;;
31482;SDS011;18103;52.246;8.052;2022-12-22T16:17:44;20.47;;;7.10;;
31482;SDS011;18103;52.246;8.052;2022-12-22T16:20:10;17.33;;;6.30;;
31482;SDS011;18103;52.246;8.052;2022-12-22T16:22:36;16.10;;;6.67;;
31482;SDS011;18103;52.246;8.052;2022-12-22T16:25:04;15.70;;;6.47;;
31482;SDS011;18103;52.246;8.052;2022-12-22T16:27:33;19.27;;;7.53;;
31482;SDS011;18103;52.246;8.052;2022-12-22T16:30:01;16.50;;;6.33;;
31482;SDS011;18103;52.246;8.052;2022-12-22T16:32:28;18.90;;;7.27;;
31482;SDS011;18103;52.246;8.052;2022-12-22T16:35:18;15.27;;;7.00;;
31482;SDS011;18103;52.246;8.052;2022-12-22T16:37:48;17.77;;;7.30;;
31482;SDS011;18103;52.246;8.052;2022-12-22T16:40:15;21.70;;;8.03;;
31482;SDS011;18103;52.246;8.052;2022-12-22T16:42:44;14.87;;;7.10;;
31482;SDS011;18103;52.246;8.052;2022-12-22T16:45:31;20.77;;;7.37;;
31482;SDS011;18103;52.246;8.052;2022-12-22T16:48:00;18.93;;;7.90;;
31482;SDS011;18103;52.246;8.052;2022-12-22T16:50:31;20.87;;;8.40;;
31482;SDS011;18103;52.246;8.052;2022-12-22T16:53:00;14.87;;;7.47;;
31482;SDS011;18103;52.246;8.052;2022-12-22T16:55:28;22.93;;;8.37;;